sensor_id;sensor_type;location;lat;lon;timestamp;P1;durP1;ratioP1;P2;durP2;ratioP2
23015;SDS011;11674;52.428;13.584;2022-11-15T00:04:54;43.78;;;22.33;;
23015;SDS011;11674;52.428;13.584;2022-11-15T00:10:20;42.55;;;22.40;;
23015;SDS011;11674;52.428;13.584;2022-11-15T00:15:46;40.35;;;22.13;;
23015;SDS011;11674;52.428;13.584;2022-11-15T00:21:12;40.50;;;21.70;;
23015;SDS011;11674;52.428;13.584;2022-11-15T00:26:38;40.20;;;20.70;;
23015;SDS011;11674;52.428;13.584;2022-11-15T00:32:04;37.90;;;21.15;;
23015;SDS011;11674;52.428;13.584;2022-11-15T00:37:30;41.47;;;22.92;;
23015;SDS011;11674;52.428;13.584;2022-11-15T00:42:55;41.97;;;22.02;;
23015;SDS011;11674;52.428;13.584;2022-11-15T00:48:20;44.00;;;22.90;;
23015;SDS011;11674;52.428;13.584;2022-11-15T00:53:46;38.22;;;21.73;;
23015;SDS011;11674;52.428;13.584;2022-11-15T00:59:11;45.50;;;23.55;;
23015;SDS011;11674;52.428;13.584;2022-11-15T01:04:36;39.35;;;21.92;;
23015;SDS011;11674;52.428;13.584;2022-11-15T01:10:01;36.95;;;20.67;;
23015;SDS011;11674;52.428;13.584;2022-11-15T01:15:26;46.15;;;21.92;;
23015;SDS011;11674;52.428;13.584;2022-11-15T01:20:52;51.40;;;23.23;;
23015;SDS011;11674;52.428;13.584;2022-11-15T01:26:18;41.10;;;22.50;;
23015;SDS011;11674;52.428;13.584;2022-11-15T01:31:44;40.72;;;21.73;;
23015;SDS011;11674;52.428;13.584;2022-11-15T01:37:09;42.42;;;22.30;;
23015;SDS011;11674;52.428;13.584;2022-11-15T01:42:35;41.17;;;22.48;;
23015;SDS011;11674;52.428;13.584;2022-11-15T01:48:00;46.00;;;23.92;;
23015;SDS011;11674;52.428;13.584;2022-11-15T01:53:27;50.63;;;23.52;;
23015;SDS011;11674;52.428;13.584;2022-11-15T01:58:55;41.35;;;21.58;;
23015;SDS011;11674;52.428;13.584;2022-11-15T02:04:26;44.53;;;22.70;;
23015;SDS011;11674;52.428;13.584;2022-11-15T02:09:54;41.47;;;23.08;;
23015;SDS011;11674;52.428;13.584;2022-11-15T02:15:20;42.22;;;22.13;;
23015;SDS011;11674;52.428;13.584;2022-11-15T02:20:52;41.38;;;22.83;;
23015;SDS011;11674;52.428;13.584;2022-11-15T02:32:33;46.75;;;22.85;;
23015;SDS011;11674;52.428;13.584;2022-11-15T02:44:00;43.17;;;22.13;;
23015;SDS011;11674;52.428;13.584;2022-11-15T02:49:32;40.67;;;22.80;;
23015;SDS011;11674;52.428;13.584;2022-11-15T02:54:59;44.72;;;23.85;;
23015;SDS011;11674;52.428;13.584;2022-11-15T03:00:26;38.13;;;22.00;;
23015;SDS011;11674;52.428;13.584;2022-11-15T03:22:29;43.33;;;22.13;;
23015;SDS011;11674;52.428;13.584;2022-11-15T03:27:58;41.05;;;23.02;;
23015;SDS011;11674;52.428;13.584;2022-11-15T03:33:27;43.13;;;22.63;;
23015;SDS011;11674;52.428;13.584;2022-11-15T03:38:54;45.85;;;22.20;;
23015;SDS011;11674;52.428;13.584;2022-11-15T03:44:34;41.77;;;22.60;;
23015;SDS011;11674;52.428;13.584;2022-11-15T03:50:19;41.00;;;21.92;;
23015;SDS011;11674;52.428;13.584;2022-11-15T03:55:47;39.65;;;21.05;;
23015;SDS011;11674;52.428;13.584;2022-11-15T04:01:13;42.85;;;22.42;;
23015;SDS011;11674;52.428;13.584;2022-11-15T04:06:38;43.22;;;23.50;;
23015;SDS011;11674;52.428;13.584;2022-11-15T04:12:10;42.38;;;22.42;;
23015;SDS011;11674;52.428;13.584;2022-11-15T04:17:55;42.92;;;23.08;;
23015;SDS011;11674;52.428;13.584;2022-11-15T04:23:22;42.60;;;22.45;;
23015;SDS011;11674;52.428;13.584;2022-11-15T04:28:48;43.88;;;22.98;;
23015;SDS011;11674;52.428;13.584;2022-11-15T04:34:14;40.67;;;21.90;;
23015;SDS011;11674;52.428;13.584;2022-11-15T04:39:39;42.50;;;22.08;;
23015;SDS011;11674;52.428;13.584;2022-11-15T04:45:06;39.63;;;22.27;;
23015;SDS011;11674;52.428;13.584;2022-11-15T04:50:32;41.92;;;22.17;;
23015;SDS011;11674;52.428;13.584;2022-11-15T04:55:57;41.35;;;23.00;;
23015;SDS011;11674;52.428;13.584;2022-11-15T05:01:23;41.50;;;22.50;;
23015;SDS011;11674;52.428;13.584;2022-11-15T05:06:49;47.20;;;22.95;;
23015;SDS011;11674;52.428;13.584;2022-11-15T05:12:16;46.30;;;23.02;;
23015;SDS011;11674;52.428;13.584;2022-11-15T05:17:42;40.38;;;22.92;;
23015;SDS011;11674;52.428;13.584;2022-11-15T05:23:07;43.25;;;22.92;;
23015;SDS011;11674;52.428;13.584;2022-11-15T05:28:33;44.92;;;22.58;;
23015;SDS011;11674;52.428;13.584;2022-11-15T05:33:59;44.60;;;22.52;;
23015;SDS011;11674;52.428;13.584;2022-11-15T05:39:29;40.67;;;22.42;;
23015;SDS011;11674;52.428;13.584;2022-11-15T05:44:55;41.08;;;21.98;;
23015;SDS011;11674;52.428;13.584;2022-11-15T05:50:23;44.42;;;22.75;;
23015;SDS011;11674;52.428;13.584;2022-11-15T05:55:49;46.47;;;22.30;;
23015;SDS011;11674;52.428;13.584;2022-11-15T06:01:15;44.28;;;23.85;;
23015;SDS011;11674;52.428;13.584;2022-11-15T06:06:41;45.88;;;23.25;;
23015;SDS011;11674;52.428;13.584;2022-11-15T06:12:06;46.13;;;22.15;;
23015;SDS011;11674;52.428;13.584;2022-11-15T06:17:31;57.10;;;28.33;;
23015;SDS011;11674;52.428;13.584;2022-11-15T06:23:01;41.08;;;22.70;;
23015;SDS011;11674;52.428;13.584;2022-11-15T06:28:28;47.38;;;22.67;;
23015;SDS011;11674;52.428;13.584;2022-11-15T06:33:58;36.72;;;21.45;;
23015;SDS011;11674;52.428;13.584;2022-11-15T06:39:24;41.88;;;22.60;;
23015;SDS011;11674;52.428;13.584;2022-11-15T06:44:50;41.97;;;22.23;;
23015;SDS011;11674;52.428;13.584;2022-11-15T06:50:15;46.72;;;23.48;;
23015;SDS011;11674;52.428;13.584;2022-11-15T06:55:41;45.00;;;22.30;;
23015;SDS011;11674;52.428;13.584;2022-11-15T07:01:08;63.05;;;24.02;;
23015;SDS011;11674;52.428;13.584;2022-11-15T07:06:35;51.53;;;23.00;;
23015;SDS011;11674;52.428;13.584;2022-11-15T07:12:00;57.75;;;23.55;;
23015;SDS011;11674;52.428;13.584;2022-11-15T07:17:26;47.60;;;23.38;;
23015;SDS011;11674;52.428;13.584;2022-11-15T07:22:54;41.63;;;23.20;;
23015;SDS011;11674;52.428;13.584;2022-11-15T07:28:25;44.70;;;22.45;;
23015;SDS011;11674;52.428;13.584;2022-11-15T07:33:51;51.00;;;23.27;;
23015;SDS011;11674;52.428;13.584;2022-11-15T07:39:17;48.78;;;22.95;;
23015;SDS011;11674;52.428;13.584;2022-11-15T07:44:43;54.78;;;23.80;;
23015;SDS011;11674;52.428;13.584;2022-11-15T07:50:08;50.60;;;25.13;;
23015;SDS011;11674;52.428;13.584;2022-11-15T07:55:34;50.40;;;23.40;;
23015;SDS011;11674;52.428;13.584;2022-11-15T08:01:02;51.50;;;24.52;;
23015;SDS011;11674;52.428;13.584;2022-11-15T08:06:31;46.92;;;22.80;;
23015;SDS011;11674;52.428;13.584;2022-11-15T08:11:56;42.10;;;22.38;;
23015;SDS011;11674;52.428;13.584;2022-11-15T08:17:22;42.35;;;22.90;;
23015;SDS011;11674;52.428;13.584;2022-11-15T08:22:49;57.58;;;24.80;;
23015;SDS011;11674;52.428;13.584;2022-11-15T08:28:15;51.97;;;24.48;;
23015;SDS011;11674;52.428;13.584;2022-11-15T08:33:42;53.58;;;23.08;;
23015;SDS011;11674;52.428;13.584;2022-11-15T08:39:10;49.60;;;23.35;;
23015;SDS011;11674;52.428;13.584;2022-11-15T08:44:36;41.13;;;22.77;;
23015;SDS011;11674;52.428;13.584;2022-11-15T08:50:01;41.88;;;23.17;;
23015;SDS011;11674;52.428;13.584;2022-11-15T08:55:26;40.33;;;22.92;;
23015;SDS011;11674;52.428;13.584;2022-11-15T09:00:51;44.15;;;22.33;;
23015;SDS011;11674;52.428;13.584;2022-11-15T09:06:16;40.40;;;21.60;;
23015;SDS011;11674;52.428;13.584;2022-11-15T09:11:42;40.60;;;21.90;;
23015;SDS011;11674;52.428;13.584;2022-11-15T09:17:07;41.53;;;22.65;;
23015;SDS011;11674;52.428;13.584;2022-11-15T09:22:34;42.42;;;22.70;;
23015;SDS011;11674;52.428;13.584;2022-11-15T09:28:00;39.75;;;22.25;;
23015;SDS011;11674;52.428;13.584;2022-11-15T09:33:26;45.50;;;22.80;;
23015;SDS011;11674;52.428;13.584;2022-11-15T09:38:52;40.97;;;21.58;;
23015;SDS011;11674;52.428;13.584;2022-11-15T09:49:58;38.38;;;21.42;;
23015;SDS011;11674;52.428;13.584;2022-11-15T09:55:11;40.00;;;21.55;;
23015;SDS011;11674;52.428;13.584;2022-11-15T10:00:40;36.38;;;20.45;;
23015;SDS011;11674;52.428;13.584;2022-11-15T10:05:51;39.63;;;21.63;;
23015;SDS011;11674;52.428;13.584;2022-11-15T10:11:03;38.27;;;20.87;;
23015;SDS011;11674;52.428;13.584;2022-11-15T10:27:12;30.77;;;17.95;;
23015;SDS011;11674;52.428;13.584;2022-11-15T10:32:23;25.58;;;15.25;;
23015;SDS011;11674;52.428;13.584;2022-11-15T10:37:31;23.92;;;14.30;;
23015;SDS011;11674;52.428;13.584;2022-11-15T10:42:38;23.63;;;13.10;;
23015;SDS011;11674;52.428;13.584;2022-11-15T10:47:45;21.75;;;12.68;;
23015;SDS011;11674;52.428;13.584;2022-11-15T10:52:52;29.35;;;16.23;;
23015;SDS011;11674;52.428;13.584;2022-11-15T10:58:04;20.13;;;11.05;;
23015;SDS011;11674;52.428;13.584;2022-11-15T11:03:30;21.55;;;10.52;;
23015;SDS011;11674;52.428;13.584;2022-11-15T11:09:30;17.65;;;10.60;;
23015;SDS011;11674;52.428;13.584;2022-11-15T11:14:29;16.65;;;10.55;;
23015;SDS011;11674;52.428;13.584;2022-11-15T11:19:39;16.90;;;10.98;;
23015;SDS011;11674;52.428;13.584;2022-11-15T11:25:03;17.63;;;10.07;;
23015;SDS011;11674;52.428;13.584;2022-11-15T11:30:45;16.67;;;9.75;;
23015;SDS011;11674;52.428;13.584;2022-11-15T11:47:28;24.35;;;12.77;;
23015;SDS011;11674;52.428;13.584;2022-11-15T12:03:28;17.60;;;9.95;;
23015;SDS011;11674;52.428;13.584;2022-11-15T12:13:59;13.93;;;8.35;;
23015;SDS011;11674;52.428;13.584;2022-11-15T12:19:09;15.85;;;8.75;;
23015;SDS011;11674;52.428;13.584;2022-11-15T12:24:26;11.68;;;7.50;;
23015;SDS011;11674;52.428;13.584;2022-11-15T12:29:56;13.68;;;9.15;;
23015;SDS011;11674;52.428;13.584;2022-11-15T12:35:20;18.60;;;10.15;;
23015;SDS011;11674;52.428;13.584;2022-11-15T12:40:34;18.30;;;9.13;;
23015;SDS011;11674;52.428;13.584;2022-11-15T12:45:44;13.88;;;9.77;;
23015;SDS011;11674;52.428;13.584;2022-11-15T13:06:41;12.90;;;8.73;;
23015;SDS011;11674;52.428;13.584;2022-11-15T13:17:30;11.30;;;7.95;;
23015;SDS011;11674;52.428;13.584;2022-11-15T13:27:47;12.18;;;7.25;;
23015;SDS011;11674;52.428;13.584;2022-11-15T13:33:05;11.18;;;6.82;;
23015;SDS011;11674;52.428;13.584;2022-11-15T13:38:26;10.52;;;7.03;;
23015;SDS011;11674;52.428;13.584;2022-11-15T13:43:37;10.10;;;6.90;;
23015;SDS011;11674;52.428;13.584;2022-11-15T13:48:45;10.82;;;7.30;;
23015;SDS011;11674;52.428;13.584;2022-11-15T13:53:55;11.90;;;7.75;;
23015;SDS011;11674;52.428;13.584;2022-11-15T13:59:29;13.07;;;7.65;;
23015;SDS011;11674;52.428;13.584;2022-11-15T14:04:38;16.83;;;8.73;;
23015;SDS011;11674;52.428;13.584;2022-11-15T14:09:52;17.73;;;8.10;;
23015;SDS011;11674;52.428;13.584;2022-11-15T14:15:00;12.77;;;7.78;;
23015;SDS011;11674;52.428;13.584;2022-11-15T14:25:32;16.17;;;8.75;;
23015;SDS011;11674;52.428;13.584;2022-11-15T14:30:41;15.60;;;8.38;;
23015;SDS011;11674;52.428;13.584;2022-11-15T14:35:50;17.05;;;8.82;;
23015;SDS011;11674;52.428;13.584;2022-11-15T14:40:58;14.95;;;9.30;;
23015;SDS011;11674;52.428;13.584;2022-11-15T14:46:05;15.80;;;9.15;;
23015;SDS011;11674;52.428;13.584;2022-11-15T14:51:19;13.65;;;8.48;;
23015;SDS011;11674;52.428;13.584;2022-11-15T14:56:26;15.07;;;8.43;;
23015;SDS011;11674;52.428;13.584;2022-11-15T15:01:33;15.13;;;8.07;;
23015;SDS011;11674;52.428;13.584;2022-11-15T15:06:40;17.33;;;9.45;;
23015;SDS011;11674;52.428;13.584;2022-11-15T15:11:47;22.23;;;10.55;;
23015;SDS011;11674;52.428;13.584;2022-11-15T15:16:54;14.45;;;9.48;;
23015;SDS011;11674;52.428;13.584;2022-11-15T15:22:01;24.27;;;10.82;;
23015;SDS011;11674;52.428;13.584;2022-11-15T15:27:08;22.27;;;10.82;;
23015;SDS011;11674;52.428;13.584;2022-11-15T15:32:15;21.17;;;10.30;;
23015;SDS011;11674;52.428;13.584;2022-11-15T15:37:23;18.88;;;9.75;;
23015;SDS011;11674;52.428;13.584;2022-11-15T15:42:31;25.08;;;11.57;;
23015;SDS011;11674;52.428;13.584;2022-11-15T15:47:38;27.45;;;9.38;;
23015;SDS011;11674;52.428;13.584;2022-11-15T15:52:45;18.00;;;9.70;;
23015;SDS011;11674;52.428;13.584;2022-11-15T15:57:53;19.25;;;11.10;;
23015;SDS011;11674;52.428;13.584;2022-11-15T16:02:59;18.30;;;10.20;;
23015;SDS011;11674;52.428;13.584;2022-11-15T16:08:27;21.98;;;10.95;;
23015;SDS011;11674;52.428;13.584;2022-11-15T16:13:33;19.35;;;11.38;;
23015;SDS011;11674;52.428;13.584;2022-11-15T16:18:40;20.90;;;11.68;;
23015;SDS011;11674;52.428;13.584;2022-11-15T16:23:47;24.15;;;12.68;;
23015;SDS011;11674;52.428;13.584;2022-11-15T16:28:54;22.02;;;12.73;;
23015;SDS011;11674;52.428;13.584;2022-11-15T16:34:01;21.90;;;14.00;;
23015;SDS011;11674;52.428;13.584;2022-11-15T16:39:11;23.50;;;14.48;;
23015;SDS011;11674;52.428;13.584;2022-11-15T16:44:18;34.10;;;16.60;;
23015;SDS011;11674;52.428;13.584;2022-11-15T16:49:25;31.23;;;17.90;;
23015;SDS011;11674;52.428;13.584;2022-11-15T16:54:32;29.75;;;17.83;;
23015;SDS011;11674;52.428;13.584;2022-11-15T16:59:39;35.83;;;20.83;;
23015;SDS011;11674;52.428;13.584;2022-11-15T17:04:46;36.97;;;21.88;;
23015;SDS011;11674;52.428;13.584;2022-11-15T17:09:53;34.72;;;21.35;;
23015;SDS011;11674;52.428;13.584;2022-11-15T17:15:00;39.83;;;21.67;;
23015;SDS011;11674;52.428;13.584;2022-11-15T17:20:13;38.40;;;22.92;;
23015;SDS011;11674;52.428;13.584;2022-11-15T17:25:21;41.38;;;22.77;;
23015;SDS011;11674;52.428;13.584;2022-11-15T17:30:28;39.10;;;22.83;;
23015;SDS011;11674;52.428;13.584;2022-11-15T17:35:35;45.05;;;24.42;;
23015;SDS011;11674;52.428;13.584;2022-11-15T17:40:42;41.78;;;24.60;;
23015;SDS011;11674;52.428;13.584;2022-11-15T17:45:49;43.00;;;23.85;;
23015;SDS011;11674;52.428;13.584;2022-11-15T17:50:57;40.42;;;23.52;;
23015;SDS011;11674;52.428;13.584;2022-11-15T18:01:25;42.17;;;23.83;;
23015;SDS011;11674;52.428;13.584;2022-11-15T18:06:32;45.30;;;25.77;;
23015;SDS011;11674;52.428;13.584;2022-11-15T18:11:40;47.67;;;25.50;;
23015;SDS011;11674;52.428;13.584;2022-11-15T18:16:47;43.70;;;24.90;;
23015;SDS011;11674;52.428;13.584;2022-11-15T18:21:54;48.85;;;26.38;;
23015;SDS011;11674;52.428;13.584;2022-11-15T18:27:02;49.38;;;26.15;;
23015;SDS011;11674;52.428;13.584;2022-11-15T18:32:10;45.92;;;25.90;;
23015;SDS011;11674;52.428;13.584;2022-11-15T18:37:24;45.30;;;25.55;;
23015;SDS011;11674;52.428;13.584;2022-11-15T18:42:31;43.38;;;24.17;;
23015;SDS011;11674;52.428;13.584;2022-11-15T18:47:38;44.13;;;24.48;;
23015;SDS011;11674;52.428;13.584;2022-11-15T18:52:45;43.83;;;24.15;;
23015;SDS011;11674;52.428;13.584;2022-11-15T18:57:52;47.58;;;26.00;;
23015;SDS011;11674;52.428;13.584;2022-11-15T19:02:59;44.30;;;25.10;;
23015;SDS011;11674;52.428;13.584;2022-11-15T19:08:06;51.60;;;27.38;;
23015;SDS011;11674;52.428;13.584;2022-11-15T19:13:14;58.22;;;29.15;;
23015;SDS011;11674;52.428;13.584;2022-11-15T19:18:20;62.95;;;27.77;;
23015;SDS011;11674;52.428;13.584;2022-11-15T19:23:27;66.80;;;27.65;;
23015;SDS011;11674;52.428;13.584;2022-11-15T19:28:34;47.05;;;25.13;;
23015;SDS011;11674;52.428;13.584;2022-11-15T19:33:42;62.00;;;26.20;;
23015;SDS011;11674;52.428;13.584;2022-11-15T19:38:49;48.75;;;25.98;;
23015;SDS011;11674;52.428;13.584;2022-11-15T19:43:56;50.47;;;26.23;;
23015;SDS011;11674;52.428;13.584;2022-11-15T19:49:04;45.90;;;23.75;;
23015;SDS011;11674;52.428;13.584;2022-11-15T19:54:10;49.10;;;24.85;;
23015;SDS011;11674;52.428;13.584;2022-11-15T19:59:17;47.47;;;24.63;;
23015;SDS011;11674;52.428;13.584;2022-11-15T20:04:24;48.60;;;24.35;;
23015;SDS011;11674;52.428;13.584;2022-11-15T20:09:31;46.88;;;24.05;;
23015;SDS011;11674;52.428;13.584;2022-11-15T20:14:38;44.42;;;22.77;;
23015;SDS011;11674;52.428;13.584;2022-11-15T20:19:45;44.42;;;23.30;;
23015;SDS011;11674;52.428;13.584;2022-11-15T20:24:52;45.63;;;21.75;;
23015;SDS011;11674;52.428;13.584;2022-11-15T20:29:59;41.78;;;21.70;;
23015;SDS011;11674;52.428;13.584;2022-11-15T20:35:07;46.80;;;21.98;;
23015;SDS011;11674;52.428;13.584;2022-11-15T20:40:14;41.83;;;21.48;;
23015;SDS011;11674;52.428;13.584;2022-11-15T20:45:20;45.90;;;21.85;;
23015;SDS011;11674;52.428;13.584;2022-11-15T20:50:27;47.88;;;20.65;;
23015;SDS011;11674;52.428;13.584;2022-11-15T20:55:38;39.45;;;20.60;;
23015;SDS011;11674;52.428;13.584;2022-11-15T21:00:49;39.33;;;18.85;;
23015;SDS011;11674;52.428;13.584;2022-11-15T21:05:55;49.28;;;21.15;;
23015;SDS011;11674;52.428;13.584;2022-11-15T21:11:02;46.72;;;20.50;;
23015;SDS011;11674;52.428;13.584;2022-11-15T21:16:09;39.80;;;21.13;;
23015;SDS011;11674;52.428;13.584;2022-11-15T21:21:16;40.50;;;21.40;;
23015;SDS011;11674;52.428;13.584;2022-11-15T21:26:23;51.67;;;20.52;;
23015;SDS011;11674;52.428;13.584;2022-11-15T21:31:31;45.58;;;21.23;;
23015;SDS011;11674;52.428;13.584;2022-11-15T21:36:39;43.42;;;22.02;;
23015;SDS011;11674;52.428;13.584;2022-11-15T21:41:45;48.15;;;22.58;;
23015;SDS011;11674;52.428;13.584;2022-11-15T21:46:52;43.90;;;22.23;;
23015;SDS011;11674;52.428;13.584;2022-11-15T21:51:59;47.17;;;21.40;;
23015;SDS011;11674;52.428;13.584;2022-11-15T21:57:06;45.60;;;21.20;;
23015;SDS011;11674;52.428;13.584;2022-11-15T22:02:20;46.90;;;21.45;;
23015;SDS011;11674;52.428;13.584;2022-11-15T22:07:27;55.55;;;22.35;;
23015;SDS011;11674;52.428;13.584;2022-11-15T22:12:35;49.08;;;22.10;;
23015;SDS011;11674;52.428;13.584;2022-11-15T22:17:42;51.15;;;23.20;;
23015;SDS011;11674;52.428;13.584;2022-11-15T22:22:49;48.70;;;22.30;;
23015;SDS011;11674;52.428;13.584;2022-11-15T22:27:56;51.33;;;23.75;;
23015;SDS011;11674;52.428;13.584;2022-11-15T22:33:03;47.85;;;22.23;;
23015;SDS011;11674;52.428;13.584;2022-11-15T22:38:10;48.22;;;24.20;;
23015;SDS011;11674;52.428;13.584;2022-11-15T22:43:17;46.33;;;21.63;;
23015;SDS011;11674;52.428;13.584;2022-11-15T22:48:27;46.78;;;23.85;;
23015;SDS011;11674;52.428;13.584;2022-11-15T22:53:48;59.72;;;22.42;;
23015;SDS011;11674;52.428;13.584;2022-11-15T22:58:56;50.97;;;23.70;;
23015;SDS011;11674;52.428;13.584;2022-11-15T23:04:03;49.28;;;23.13;;
23015;SDS011;11674;52.428;13.584;2022-11-15T23:09:10;50.40;;;23.27;;
23015;SDS011;11674;52.428;13.584;2022-11-15T23:14:17;56.40;;;22.23;;
23015;SDS011;11674;52.428;13.584;2022-11-15T23:19:24;46.05;;;22.08;;
23015;SDS011;11674;52.428;13.584;2022-11-15T23:24:31;47.40;;;22.02;;
23015;SDS011;11674;52.428;13.584;2022-11-15T23:29:39;51.17;;;22.67;;
23015;SDS011;11674;52.428;13.584;2022-11-15T23:34:46;50.40;;;21.65;;
23015;SDS011;11674;52.428;13.584;2022-11-15T23:39:53;54.65;;;21.75;;
23015;SDS011;11674;52.428;13.584;2022-11-15T23:45:00;38.28;;;20.98;;
23015;SDS011;11674;52.428;13.584;2022-11-15T23:50:07;42.65;;;21.38;;
23015;SDS011;11674;52.428;13.584;2022-11-15T23:55:14;43.10;;;20.58;;
